Terminal Aerodrome Forecast
Issued by NWS Sioux Falls, SD

Home | Current Version | Previous Version | Graphics & Text | Print | Product List | Glossary On
Versions: 1 2 3 4 5 6 7 8 9 10 11 12 13 14
325
FTUS43 KFSD 191951 AAA
TAFHON
TAF AMD
KHON 191951Z 1920/2018 16013G22KT P6SM FEW250
     FM200200 16014KT P6SM BKN200 WS014/19040KT
     FM200600 16012KT P6SM BKN100
     FM200900 16014KT P6SM OVC025
     FM201300 20012KT P6SM OVC020
     FM201500 28012KT P6SM OVC030
     FM201600 28013G18KT P6SM BKN070=

USA.gov is the U.S. government's official web portal to all federal, state and local government web resources and services.